createdAt,value
2019-05-07T00:00:25.925Z,9.85
2019-05-07T00:02:54.035Z,9.13
2019-05-07T00:05:22.828Z,11.18
2019-05-07T00:07:52.092Z,11.90
2019-05-07T00:10:19.060Z,9.05
2019-05-07T00:12:47.983Z,9.55
2019-05-07T00:15:16.030Z,9.73
2019-05-07T00:17:44.200Z,10.60
2019-05-07T00:20:12.793Z,12.43
2019-05-07T00:22:41.937Z,9.60
2019-05-07T00:25:08.354Z,9.57
2019-05-07T00:27:36.468Z,11.48
2019-05-07T00:30:05.307Z,11.00
2019-05-07T00:32:33.331Z,12.07
2019-05-07T00:35:02.564Z,10.23
2019-05-07T00:37:32.156Z,10.80
2019-05-07T00:40:13.060Z,9.43
2019-05-07T00:42:56.619Z,10.38
2019-05-07T00:45:25.467Z,8.48
2019-05-07T00:47:53.509Z,10.32
2019-05-07T00:50:22.516Z,10.00
2019-05-07T00:52:49.683Z,8.75
2019-05-07T00:55:17.721Z,8.85
2019-05-07T00:57:45.786Z,8.85
2019-05-07T01:00:14.611Z,8.52
2019-05-07T01:02:43.196Z,9.43
2019-05-07T01:05:12.273Z,9.30
2019-05-07T01:07:38.827Z,9.93
2019-05-07T01:10:06.863Z,11.25
2019-05-07T01:12:35.653Z,8.65
2019-05-07T01:15:03.730Z,9.63
2019-05-07T01:17:33.520Z,9.10
2019-05-07T01:20:00.082Z,12.07
2019-05-07T01:22:28.833Z,9.85
2019-05-07T01:24:56.894Z,9.13
2019-05-07T01:27:24.951Z,8.95
2019-05-07T01:29:53.108Z,8.83
2019-05-07T01:32:24.793Z,7.80
2019-05-07T01:34:52.816Z,7.95
2019-05-07T01:37:22.938Z,7.62
2019-05-07T01:39:49.027Z,10.32
2019-05-07T01:42:17.817Z,8.48
2019-05-07T01:44:46.608Z,8.05
2019-05-07T01:47:15.427Z,10.03
2019-05-07T01:49:43.460Z,9.05
2019-05-07T01:52:13.270Z,9.77
2019-05-07T01:54:42.560Z,8.23
2019-05-07T01:57:12.104Z,9.35
2019-05-07T01:59:38.668Z,10.60
2019-05-07T02:02:07.625Z,8.43
2019-05-07T02:04:40.201Z,8.27
2019-05-07T02:07:11.951Z,10.13
2019-05-07T02:09:42.457Z,10.60
2019-05-07T02:12:13.198Z,10.73
2019-05-07T02:14:42.272Z,8.88
2019-05-07T02:17:08.693Z,11.05
2019-05-07T02:19:36.915Z,10.02
2019-05-07T02:22:05.781Z,11.43
2019-05-07T02:24:34.587Z,9.32
2019-05-07T02:27:03.124Z,11.18
2019-05-07T02:29:32.318Z,9.32
2019-05-07T02:31:58.814Z,12.13
2019-05-07T02:34:26.938Z,11.32
2019-05-07T02:36:54.963Z,9.35
2019-05-07T02:39:27.408Z,9.70
2019-05-07T02:41:55.479Z,10.77
2019-05-07T02:44:23.551Z,10.55
2019-05-07T02:46:52.947Z,7.60
2019-05-07T02:49:34.059Z,8.20
2019-05-07T02:52:07.838Z,8.43
2019-05-07T02:54:43.710Z,9.83
2019-05-07T02:57:09.594Z,8.38
2019-05-07T02:59:38.385Z,8.80
2019-05-07T03:02:06.457Z,8.10
2019-05-07T03:04:35.266Z,8.15
2019-05-07T03:07:04.077Z,8.93
2019-05-07T03:09:32.902Z,7.78
2019-05-07T03:12:00.163Z,8.02
2019-05-07T03:14:28.996Z,9.68
2019-05-07T03:16:57.022Z,7.87
2019-05-07T03:19:25.798Z,8.07
2019-05-07T03:21:55.179Z,9.32
2019-05-07T03:24:23.629Z,10.82
2019-05-07T03:26:53.547Z,9.48
2019-05-07T03:29:23.635Z,7.60
2019-05-07T03:31:49.278Z,11.10
2019-05-07T03:34:19.143Z,8.07
2019-05-07T03:36:48.949Z,7.90
2019-05-07T03:39:15.988Z,9.75
2019-05-07T03:41:44.052Z,10.00
2019-05-07T03:44:16.035Z,7.80
2019-05-07T03:46:54.486Z,10.65
2019-05-07T03:49:18.753Z,8.07
2019-05-07T03:51:46.787Z,7.50
2019-05-07T03:54:14.778Z,7.97
2019-05-07T03:56:43.732Z,8.48
2019-05-07T03:59:12.997Z,8.50
2019-05-07T04:01:43.092Z,12.77
2019-05-07T04:04:09.222Z,10.88
2019-05-07T04:06:37.233Z,8.45
2019-05-07T04:09:05.326Z,9.25
2019-05-07T04:11:33.829Z,8.25
2019-05-07T04:14:02.811Z,9.80
2019-05-07T04:16:33.026Z,8.98
2019-05-07T04:18:59.177Z,8.32
2019-05-07T04:21:27.245Z,7.97
2019-05-07T04:24:03.497Z,8.13
2019-05-07T04:26:33.581Z,9.55
2019-05-07T04:28:59.584Z,8.00
2019-05-07T04:31:27.594Z,9.13
2019-05-07T04:33:55.624Z,8.82
2019-05-07T04:36:23.652Z,10.63
2019-05-07T04:38:53.135Z,8.77
2019-05-07T04:41:23.007Z,8.40
2019-05-07T04:43:48.677Z,9.70
2019-05-07T04:46:17.531Z,8.23
2019-05-07T04:48:45.643Z,11.38
2019-05-07T04:51:14.427Z,9.52
2019-05-07T04:53:43.265Z,10.10
2019-05-07T04:56:13.853Z,9.60
2019-05-07T04:58:39.365Z,10.60
2019-05-07T05:01:08.129Z,11.60
2019-05-07T05:03:39.097Z,9.07
2019-05-07T05:06:05.014Z,9.23
2019-05-07T05:08:33.827Z,9.00
2019-05-07T05:11:03.346Z,10.20
2019-05-07T05:13:33.129Z,11.90
2019-05-07T05:15:59.524Z,10.07
2019-05-07T05:18:28.359Z,10.38
2019-05-07T05:21:02.775Z,8.65
2019-05-07T05:23:32.250Z,11.75
2019-05-07T05:26:01.827Z,9.82
2019-05-07T05:28:28.626Z,8.13
2019-05-07T05:30:58.476Z,6.82
2019-05-07T05:33:26.480Z,6.60
2019-05-07T05:35:54.583Z,8.18
2019-05-07T05:38:22.658Z,9.45
2019-05-07T05:40:52.038Z,9.00
2019-05-07T05:43:18.738Z,9.65
2019-05-07T05:45:47.176Z,8.87
2019-05-07T05:48:15.194Z,7.50
2019-05-07T05:50:49.027Z,6.93
2019-05-07T05:53:21.895Z,7.82
2019-05-07T05:55:49.581Z,5.10
2019-05-07T05:58:18.105Z,6.57
2019-05-07T06:00:53.036Z,7.18
2019-05-07T06:03:25.543Z,6.37
2019-05-07T06:05:57.211Z,6.28
2019-05-07T06:08:40.160Z,7.07
2019-05-07T06:11:08.201Z,6.50
2019-05-07T06:13:39.057Z,7.78
2019-05-07T06:16:07.128Z,5.20
2019-05-07T06:18:41.916Z,6.68
2019-05-07T06:24:03.256Z,6.47
2019-05-07T06:26:31.937Z,7.12
2019-05-07T06:28:59.394Z,6.83
2019-05-07T06:31:28.286Z,5.53
2019-05-07T06:33:56.323Z,6.87
2019-05-07T06:36:24.345Z,7.05
2019-05-07T06:38:54.864Z,10.27
2019-05-07T06:41:28.635Z,5.97
2019-05-07T06:43:57.437Z,6.07
2019-05-07T06:46:26.329Z,5.78
2019-05-07T06:48:55.174Z,7.32
2019-05-07T06:51:23.184Z,8.27
2019-05-07T06:53:51.872Z,6.20
2019-05-07T06:56:19.344Z,8.73
2019-05-07T06:58:52.632Z,6.30
2019-05-07T07:01:37.869Z,8.30
2019-05-07T07:04:13.045Z,9.43
2019-05-07T07:07:01.982Z,10.43
2019-05-07T07:09:30.261Z,8.90
2019-05-07T07:12:02.089Z,6.45
2019-05-07T07:14:28.359Z,7.05
2019-05-07T07:16:56.408Z,7.40
2019-05-07T07:19:25.212Z,7.80
2019-05-07T07:21:54.080Z,9.35
2019-05-07T07:24:22.877Z,9.43
2019-05-07T07:26:52.842Z,9.80
2019-05-07T07:29:21.497Z,9.63
2019-05-07T07:31:50.139Z,9.43
2019-05-07T07:34:18.259Z,9.38
2019-05-07T07:37:08.495Z,8.63
2019-05-07T07:39:32.188Z,7.97
2019-05-07T07:41:59.316Z,11.38
2019-05-07T07:44:27.394Z,8.13
2019-05-07T07:46:55.425Z,11.05
2019-05-07T07:49:23.452Z,9.82
2019-05-07T07:51:52.722Z,9.40
2019-05-07T07:54:22.628Z,8.68
2019-05-07T07:56:53.817Z,11.10
2019-05-07T07:59:23.189Z,11.60
2019-05-07T08:01:52.430Z,11.75
2019-05-07T08:04:19.359Z,10.60
2019-05-07T08:06:48.191Z,9.30
2019-05-07T08:09:16.251Z,8.95
2019-05-07T08:11:44.282Z,8.63
2019-05-07T08:14:13.107Z,7.80
2019-05-07T08:16:42.956Z,9.75
2019-05-07T08:19:20.920Z,9.48
2019-05-07T08:21:38.825Z,5.68
2019-05-07T08:24:07.620Z,6.57
2019-05-07T08:26:35.643Z,9.05
2019-05-07T08:29:03.689Z,7.20
2019-05-07T08:31:42.555Z,7.65
2019-05-07T08:34:16.134Z,6.07
2019-05-07T08:36:44.141Z,5.80
2019-05-07T08:39:13.119Z,7.12
2019-05-07T08:41:42.331Z,5.07
2019-05-07T08:44:12.937Z,6.18
2019-05-07T08:46:55.744Z,6.72
2019-05-07T08:49:35.725Z,7.05
2019-05-07T08:51:57.948Z,6.90
2019-05-07T08:54:26.857Z,5.72
2019-05-07T08:56:54.873Z,5.55
2019-05-07T08:59:22.916Z,5.10
2019-05-07T09:01:51.966Z,7.93
2019-05-07T09:04:19.062Z,6.60
2019-05-07T09:06:47.072Z,5.85
2019-05-07T09:09:15.163Z,5.95
2019-05-07T09:11:43.254Z,6.33
2019-05-07T09:14:12.500Z,6.50
2019-05-07T09:16:39.387Z,9.65
2019-05-07T09:19:08.264Z,5.37
2019-05-07T09:21:37.184Z,7.25
2019-05-07T09:24:06.153Z,7.50
2019-05-07T09:26:49.816Z,6.15
2019-05-07T09:29:19.693Z,4.90
2019-05-07T09:32:03.362Z,7.28
2019-05-07T09:34:32.757Z,5.63
2019-05-07T09:37:02.572Z,7.70
2019-05-07T09:39:32.468Z,7.85
2019-05-07T09:41:58.656Z,6.37
2019-05-07T09:44:26.687Z,7.95
2019-05-07T09:46:54.735Z,6.47
2019-05-07T09:49:23.431Z,7.70
2019-05-07T09:51:51.948Z,7.50
2019-05-07T09:54:19.501Z,6.00
2019-05-07T09:56:47.563Z,6.62
2019-05-07T09:59:15.571Z,6.87
2019-05-07T10:01:43.632Z,7.57
2019-05-07T10:04:11.632Z,8.10
2019-05-07T10:06:39.717Z,6.50
2019-05-07T10:09:08.636Z,8.57
2019-05-07T10:11:52.449Z,6.25
2019-05-07T10:14:19.616Z,7.07
2019-05-07T10:16:52.497Z,7.82
2019-05-07T10:19:22.249Z,5.50
2019-05-07T10:21:49.321Z,6.12
2019-05-07T10:24:18.116Z,6.43
2019-05-07T10:26:46.245Z,7.10
2019-05-07T10:29:14.270Z,7.78
2019-05-07T10:31:42.471Z,5.68
2019-05-07T10:34:12.454Z,7.30
2019-05-07T10:36:42.031Z,6.53
2019-05-07T10:39:08.789Z,6.40
2019-05-07T10:41:38.457Z,6.40
2019-05-07T10:44:06.416Z,6.40
2019-05-07T10:46:53.251Z,6.65
2019-05-07T10:49:22.593Z,6.28
2019-05-07T10:51:49.372Z,7.57
2019-05-07T10:54:17.388Z,6.95
2019-05-07T10:56:45.460Z,6.82
2019-05-07T10:59:14.340Z,6.05
2019-05-07T11:01:48.818Z,6.05
2019-05-07T11:04:16.941Z,6.30
2019-05-07T11:06:45.009Z,7.28
2019-05-07T11:09:13.075Z,8.13
2019-05-07T11:11:42.348Z,7.40
2019-05-07T11:14:12.284Z,7.62
2019-05-07T11:16:45.444Z,7.65
2019-05-07T11:19:13.869Z,6.80
2019-05-07T11:21:41.983Z,7.68
2019-05-07T11:24:11.970Z,6.72
2019-05-07T11:26:38.002Z,6.68
2019-05-07T11:29:06.071Z,7.60
2019-05-07T11:31:34.100Z,6.05
2019-05-07T11:34:03.083Z,6.03
2019-05-07T11:36:32.075Z,8.32
2019-05-07T11:39:01.708Z,8.10
2019-05-07T11:41:37.765Z,5.55
2019-05-07T11:44:05.786Z,5.97
2019-05-07T11:46:44.597Z,6.60
2019-05-07T11:49:14.151Z,7.25
2019-05-07T11:51:42.991Z,7.37
2019-05-07T11:54:12.722Z,7.15
2019-05-07T11:56:41.999Z,5.28
2019-05-07T11:59:08.792Z,5.75
2019-05-07T12:01:46.717Z,7.03
2019-05-07T12:04:07.075Z,8.27
2019-05-07T12:06:35.967Z,6.40
2019-05-07T12:09:04.759Z,6.93
2019-05-07T12:11:33.595Z,7.75
2019-05-07T12:14:02.062Z,6.93
2019-05-07T12:16:31.830Z,7.18
2019-05-07T12:18:57.663Z,7.17
2019-05-07T12:21:25.733Z,6.90
2019-05-07T12:23:54.502Z,6.13
2019-05-07T12:26:23.409Z,6.90
2019-05-07T12:28:52.168Z,7.32
2019-05-07T12:31:25.265Z,7.00
2019-05-07T12:33:54.063Z,6.15
2019-05-07T12:36:22.745Z,5.72
2019-05-07T12:38:50.208Z,6.57
2019-05-07T12:41:23.909Z,7.62
2019-05-07T12:43:52.791Z,5.75
2019-05-07T12:46:22.374Z,5.53
2019-05-07T12:48:48.911Z,6.43
2019-05-07T12:51:17.012Z,6.70
2019-05-07T12:53:47.615Z,6.85
2019-05-07T12:56:16.189Z,6.50
2019-05-07T12:58:44.258Z,8.35
2019-05-07T13:01:14.183Z,5.37
2019-05-07T13:03:47.911Z,8.20
2019-05-07T13:06:16.792Z,6.60
2019-05-07T13:08:44.800Z,7.47
2019-05-07T13:11:13.237Z,6.65
2019-05-07T13:13:42.347Z,8.50
2019-05-07T13:16:09.807Z,7.35
2019-05-07T13:18:37.921Z,8.57
2019-05-07T13:21:05.959Z,6.97
2019-05-07T13:23:34.013Z,7.20
2019-05-07T13:26:02.906Z,7.25
2019-05-07T13:28:30.978Z,7.65
2019-05-07T13:31:02.193Z,7.27
2019-05-07T13:33:27.871Z,6.35
2019-05-07T13:35:55.941Z,9.15
2019-05-07T13:38:25.570Z,7.90
2019-05-07T13:41:09.520Z,8.52
2019-05-07T13:43:37.885Z,6.87
2019-05-07T13:46:06.820Z,8.55
2019-05-07T13:48:34.838Z,8.67
2019-05-07T13:51:02.965Z,7.30
2019-05-07T13:53:32.286Z,7.90
2019-05-07T13:55:59.106Z,7.90
2019-05-07T13:58:27.174Z,7.22
2019-05-07T14:00:56.893Z,6.07
2019-05-07T14:03:24.916Z,6.32
2019-05-07T14:05:52.949Z,6.37
2019-05-07T14:08:23.046Z,8.15
2019-05-07T14:10:51.601Z,6.87
2019-05-07T14:13:17.873Z,6.22
2019-05-07T14:15:52.399Z,7.87
2019-05-07T14:18:24.107Z,7.17
2019-05-07T14:20:50.068Z,5.35
2019-05-07T14:23:18.167Z,7.85
2019-05-07T14:25:46.190Z,6.85
2019-05-07T14:28:15.073Z,6.12
2019-05-07T14:30:43.072Z,5.13
2019-05-07T14:33:12.977Z,6.53
2019-05-07T14:35:46.635Z,6.65
2019-05-07T14:38:22.181Z,5.72
2019-05-07T14:40:48.336Z,7.03
2019-05-07T14:43:27.061Z,6.90
2019-05-07T14:45:55.126Z,8.13
2019-05-07T14:48:23.917Z,6.40
2019-05-07T14:50:53.084Z,7.22
2019-05-07T14:53:22.201Z,6.73
2019-05-07T14:55:48.758Z,6.25
2019-05-07T14:58:16.785Z,6.25
2019-05-07T15:00:44.857Z,7.12
2019-05-07T15:03:12.870Z,6.15
2019-05-07T15:05:42.276Z,5.45
2019-05-07T15:08:13.429Z,4.53
2019-05-07T15:10:38.192Z,8.15
2019-05-07T15:13:06.251Z,9.93
2019-05-07T15:15:35.052Z,7.90
2019-05-07T15:18:03.081Z,8.00
2019-05-07T15:20:33.017Z,6.70
2019-05-07T15:22:59.185Z,5.55
2019-05-07T15:25:27.964Z,11.97
2019-05-07T15:27:56.032Z,7.87
2019-05-07T15:30:24.057Z,7.35
2019-05-07T15:32:52.230Z,8.93
2019-05-07T15:35:20.129Z,6.60
2019-05-07T15:37:48.169Z,8.18
2019-05-07T15:40:16.301Z,7.95
2019-05-07T15:42:44.331Z,7.00
2019-05-07T15:45:13.174Z,8.27
2019-05-07T15:47:43.822Z,8.02
2019-05-07T15:50:12.470Z,7.22
2019-05-07T15:52:57.610Z,7.57
2019-05-07T15:55:14.555Z,7.87
2019-05-07T15:57:42.863Z,7.03
2019-05-07T16:00:12.345Z,6.23
2019-05-07T16:02:45.251Z,6.07
2019-05-07T16:05:12.210Z,8.13
2019-05-07T16:07:41.853Z,9.93
2019-05-07T16:10:08.677Z,7.32
2019-05-07T16:12:37.603Z,7.60
2019-05-07T16:15:05.638Z,6.30
2019-05-07T16:17:33.670Z,8.80
2019-05-07T16:20:03.184Z,4.72
2019-05-07T16:22:29.718Z,5.62
2019-05-07T16:24:57.787Z,9.43
2019-05-07T16:27:25.924Z,7.55
2019-05-07T16:29:54.094Z,8.38
2019-05-07T16:32:24.115Z,7.77
2019-05-07T16:34:50.186Z,8.00
2019-05-07T16:37:19.015Z,7.32
2019-05-07T16:39:47.034Z,7.80
2019-05-07T16:42:15.041Z,9.73
2019-05-07T16:44:43.092Z,8.27
2019-05-07T16:47:12.255Z,8.00
2019-05-07T16:49:42.457Z,7.87
2019-05-07T16:52:09.566Z,8.35
2019-05-07T16:54:37.595Z,8.90
2019-05-07T16:57:12.203Z,6.90
2019-05-07T16:59:42.568Z,9.75
2019-05-07T17:02:09.101Z,8.07
2019-05-07T17:04:37.889Z,7.30
2019-05-07T17:07:05.983Z,8.57
2019-05-07T17:09:35.494Z,7.60
2019-05-07T17:12:02.126Z,6.87
2019-05-07T17:14:30.184Z,8.20
2019-05-07T17:16:58.221Z,8.82
2019-05-07T17:19:26.440Z,7.65
2019-05-07T17:21:54.457Z,8.13
2019-05-07T17:24:23.987Z,8.30
2019-05-07T17:26:52.920Z,8.70
2019-05-07T17:29:22.701Z,7.25
2019-05-07T17:31:49.847Z,8.32
2019-05-07T17:34:18.642Z,7.68
2019-05-07T17:36:47.425Z,7.97
2019-05-07T17:39:19.446Z,6.07
2019-05-07T17:41:47.515Z,7.37
2019-05-07T17:44:15.523Z,7.78
2019-05-07T17:46:46.033Z,4.97
2019-05-07T17:49:12.069Z,7.32
2019-05-07T17:51:44.336Z,6.23
2019-05-07T17:54:13.469Z,7.80
2019-05-07T17:56:42.231Z,6.20
2019-05-07T17:59:09.411Z,4.87
2019-05-07T18:01:37.916Z,6.03
2019-05-07T18:04:05.929Z,8.10
2019-05-07T18:06:34.729Z,6.53
2019-05-07T18:09:03.071Z,9.73
2019-05-07T18:11:32.439Z,10.15
2019-05-07T18:13:58.908Z,7.40
2019-05-07T18:16:32.581Z,9.15
2019-05-07T18:19:01.987Z,8.80
2019-05-07T18:21:27.987Z,10.70
2019-05-07T18:23:56.030Z,9.45
2019-05-07T18:26:30.487Z,8.57
2019-05-07T18:28:52.936Z,10.93
2019-05-07T18:31:22.186Z,11.15
2019-05-07T18:33:48.988Z,8.70
2019-05-07T18:36:17.123Z,8.63
2019-05-07T18:38:45.153Z,11.32
2019-05-07T18:41:13.944Z,10.45
2019-05-07T18:43:42.832Z,7.43
2019-05-07T18:46:12.877Z,8.87
2019-05-07T18:48:42.456Z,8.07
2019-05-07T18:51:08.580Z,9.55
2019-05-07T18:53:37.523Z,8.68
2019-05-07T18:56:05.640Z,8.60
2019-05-07T18:58:34.675Z,9.50
2019-05-07T19:01:13.080Z,10.15
2019-05-07T19:03:42.005Z,10.30
2019-05-07T19:06:10.008Z,8.32
2019-05-07T19:08:38.874Z,12.30
2019-05-07T19:11:07.056Z,12.88
2019-05-07T19:13:35.145Z,9.88
2019-05-07T19:16:03.209Z,9.00
2019-05-07T19:18:32.303Z,14.25
2019-05-07T19:21:00.068Z,10.55
2019-05-07T19:23:28.884Z,10.48
2019-05-07T19:25:56.939Z,13.77
2019-05-07T19:28:25.726Z,9.93
2019-05-07T19:30:53.801Z,7.35
2019-05-07T19:33:26.180Z,8.30
2019-05-07T19:35:49.961Z,10.93
2019-05-07T19:38:17.989Z,8.50
2019-05-07T19:40:46.782Z,8.38
2019-05-07T19:43:14.844Z,9.48
2019-05-07T19:45:43.755Z,12.15
2019-05-07T19:48:12.437Z,8.23
2019-05-07T19:50:41.855Z,8.40
2019-05-07T19:53:08.103Z,8.93
2019-05-07T19:55:43.912Z,10.10
2019-05-07T19:58:11.997Z,10.32
2019-05-07T20:00:38.786Z,12.45
2019-05-07T20:03:06.804Z,9.57
2019-05-07T20:05:37.257Z,8.90
2019-05-07T20:08:04.714Z,8.93
2019-05-07T20:10:33.085Z,7.35
2019-05-07T20:13:02.992Z,9.67
2019-05-07T20:15:28.664Z,9.20
2019-05-07T20:17:57.502Z,8.50
2019-05-07T20:20:25.584Z,10.77
2019-05-07T20:22:53.727Z,12.43
2019-05-07T20:25:22.532Z,12.25
2019-05-07T20:27:49.963Z,14.68
2019-05-07T20:30:18.804Z,12.90
2019-05-07T20:32:46.937Z,8.75
2019-05-07T20:35:14.977Z,12.35
2019-05-07T20:37:44.512Z,10.43
2019-05-07T20:40:12.570Z,10.43
2019-05-07T20:42:42.803Z,9.75
2019-05-07T20:45:12.117Z,9.23
2019-05-07T20:47:38.339Z,7.35
2019-05-07T20:50:06.354Z,9.40
2019-05-07T20:52:34.381Z,11.82
2019-05-07T20:55:02.871Z,11.02
2019-05-07T20:57:32.841Z,9.68
2019-05-07T21:00:02.784Z,9.23
2019-05-07T21:02:42.532Z,11.12
2019-05-07T21:04:58.687Z,8.57
2019-05-07T21:07:27.535Z,10.38
2019-05-07T21:09:55.558Z,10.13
2019-05-07T21:12:23.625Z,11.20
2019-05-07T21:14:52.638Z,12.80
2019-05-07T21:17:22.556Z,13.82
2019-05-07T21:19:49.444Z,8.60
2019-05-07T21:22:17.635Z,10.80
2019-05-07T21:24:46.960Z,10.63
2019-05-07T21:27:14.492Z,8.95
2019-05-07T21:29:43.293Z,8.82
2019-05-07T21:32:12.519Z,9.00
2019-05-07T21:34:42.117Z,10.68
2019-05-07T21:37:08.925Z,10.90
2019-05-07T21:39:37.841Z,9.35
2019-05-07T21:42:05.864Z,11.02
2019-05-07T21:44:33.903Z,13.13
2019-05-07T21:47:03.960Z,10.45
2019-05-07T21:49:32.185Z,9.55
2019-05-07T21:51:58.056Z,10.83
2019-05-07T21:54:27.013Z,11.48
2019-05-07T21:57:02.080Z,11.32
2019-05-07T21:59:32.758Z,10.80
2019-05-07T22:01:58.677Z,11.27
2019-05-07T22:04:26.743Z,12.23
2019-05-07T22:06:54.817Z,11.20
2019-05-07T22:09:22.867Z,14.63
2019-05-07T22:11:53.683Z,14.20
2019-05-07T22:14:22.016Z,11.18
2019-05-07T22:16:47.900Z,10.57
2019-05-07T22:19:16.686Z,14.63
2019-05-07T22:21:44.719Z,13.77
2019-05-07T22:24:15.177Z,12.65
2019-05-07T22:26:42.108Z,11.48
2019-05-07T22:29:12.312Z,11.52
2019-05-07T22:31:44.128Z,12.57
2019-05-07T22:34:30.768Z,13.77
2019-05-07T22:36:58.989Z,11.00
2019-05-07T22:39:28.027Z,10.40
2019-05-07T22:41:56.035Z,13.50
2019-05-07T22:44:26.366Z,12.10
2019-05-07T22:46:52.896Z,11.73
2019-05-07T22:49:22.935Z,11.93
2019-05-07T22:51:49.924Z,13.25
2019-05-07T22:54:17.996Z,11.05
2019-05-07T22:56:52.464Z,17.65
2019-05-07T22:59:22.274Z,10.68
2019-05-07T23:01:47.966Z,13.38
2019-05-07T23:04:16.773Z,10.60
2019-05-07T23:06:45.573Z,11.15
2019-05-07T23:09:13.621Z,13.65
2019-05-07T23:11:42.417Z,15.65
2019-05-07T23:14:11.820Z,12.63
2019-05-07T23:16:38.557Z,11.48
2019-05-07T23:19:07.360Z,11.75
2019-05-07T23:21:35.457Z,12.88
2019-05-07T23:24:03.484Z,14.70
2019-05-07T23:26:36.496Z,16.73
2019-05-07T23:29:02.383Z,11.75
2019-05-07T23:31:29.172Z,11.90
2019-05-07T23:33:57.209Z,14.93
2019-05-07T23:36:25.272Z,13.05
2019-05-07T23:38:53.304Z,14.40
2019-05-07T23:41:24.962Z,11.65
2019-05-07T23:43:58.636Z,12.88
2019-05-07T23:46:26.676Z,13.50
2019-05-07T23:48:54.747Z,12.27
2019-05-07T23:51:22.816Z,13.40
2019-05-07T23:53:51.895Z,13.13
2019-05-07T23:56:19.007Z,12.43
2019-05-07T23:58:47.162Z,12.48
